createdAt,value
2022-11-13T00:00:25.386Z,0.00
2022-11-13T00:01:24.561Z,0.00
2022-11-13T00:02:24.639Z,0.00
2022-11-13T00:03:24.535Z,0.00
2022-11-13T00:04:24.523Z,0.00
2022-11-13T00:05:24.519Z,0.00
2022-11-13T00:06:24.613Z,0.00
2022-11-13T00:07:24.582Z,0.00
2022-11-13T00:08:24.578Z,0.00
2022-11-13T00:09:24.583Z,0.00
2022-11-13T00:10:24.469Z,0.00
2022-11-13T00:11:24.506Z,0.00
2022-11-13T00:12:24.442Z,0.00
2022-11-13T00:13:30.009Z,0.00
2022-11-13T00:14:24.460Z,0.00
2022-11-13T00:15:24.414Z,0.00
2022-11-13T00:16:24.410Z,0.00
2022-11-13T00:17:24.390Z,0.00
2022-11-13T00:18:24.466Z,0.00
2022-11-13T00:19:24.424Z,0.00
2022-11-13T00:20:24.386Z,0.00
2022-11-13T00:21:24.343Z,0.00
2022-11-13T00:22:24.462Z,0.00
2022-11-13T00:23:24.371Z,0.00
2022-11-13T00:24:24.335Z,0.00
2022-11-13T00:25:24.348Z,0.00
2022-11-13T00:26:24.298Z,0.00
2022-11-13T00:27:24.303Z,0.00
2022-11-13T00:28:24.457Z,0.00
2022-11-13T00:29:24.286Z,0.00
2022-11-13T00:30:24.240Z,0.00
2022-11-13T00:31:24.270Z,0.00
2022-11-13T00:32:24.222Z,0.00
2022-11-13T00:33:45.281Z,0.00
2022-11-13T00:34:46.651Z,0.00
2022-11-13T00:35:25.188Z,0.00
2022-11-13T00:36:26.242Z,0.00
2022-11-13T00:37:24.182Z,0.00
2022-11-13T00:38:24.393Z,0.00
2022-11-13T00:39:24.169Z,0.00
2022-11-13T00:40:24.136Z,0.00
2022-11-13T00:41:24.129Z,0.00
2022-11-13T00:42:24.149Z,0.00
2022-11-13T00:43:24.098Z,0.00
2022-11-13T00:44:24.089Z,0.00
2022-11-13T00:45:24.086Z,0.00
2022-11-13T00:46:24.073Z,0.00
2022-11-13T00:47:24.081Z,0.00
2022-11-13T00:48:24.060Z,0.00
2022-11-13T00:49:24.034Z,0.00
2022-11-13T00:50:24.039Z,0.00
2022-11-13T00:51:24.026Z,0.00
2022-11-13T00:52:24.038Z,0.00
2022-11-13T00:53:24.007Z,0.00
2022-11-13T00:54:24.114Z,0.00
2022-11-13T00:55:23.972Z,0.00
2022-11-13T00:56:23.971Z,0.00
2022-11-13T00:57:23.952Z,0.00
2022-11-13T00:58:23.950Z,0.00
2022-11-13T00:59:23.967Z,0.00
2022-11-13T01:00:23.924Z,0.00
2022-11-13T01:01:23.956Z,0.00
2022-11-13T01:02:23.926Z,0.00
2022-11-13T01:03:23.888Z,0.00
2022-11-13T01:04:23.989Z,0.00
2022-11-13T01:05:23.888Z,0.00
2022-11-13T01:06:23.854Z,0.00
2022-11-13T01:07:23.851Z,0.00
2022-11-13T01:08:23.852Z,0.00
2022-11-13T01:09:23.850Z,0.00
2022-11-13T01:10:23.910Z,0.00
2022-11-13T01:11:23.832Z,0.00
2022-11-13T01:12:23.787Z,0.00
2022-11-13T01:13:23.841Z,0.00
2022-11-13T01:14:23.766Z,0.00
2022-11-13T01:15:23.780Z,0.00
2022-11-13T01:16:23.757Z,0.00
2022-11-13T01:17:23.739Z,0.00
2022-11-13T01:18:23.757Z,0.00
2022-11-13T01:19:23.736Z,0.00
2022-11-13T01:20:23.694Z,0.00
2022-11-13T01:21:23.707Z,0.00
2022-11-13T01:22:23.678Z,0.00
2022-11-13T01:23:23.675Z,0.00
2022-11-13T01:24:23.679Z,0.00
2022-11-13T01:25:23.643Z,0.00
2022-11-13T01:26:23.743Z,0.00
2022-11-13T01:27:23.683Z,0.00
2022-11-13T01:28:23.632Z,0.00
2022-11-13T01:29:23.635Z,0.00
2022-11-13T01:30:23.583Z,0.00
2022-11-13T01:31:23.593Z,0.00
2022-11-13T01:32:23.579Z,0.00
2022-11-13T01:33:23.594Z,0.00
2022-11-13T01:34:23.550Z,0.00
2022-11-13T01:35:23.535Z,0.00
2022-11-13T01:36:23.562Z,0.00
2022-11-13T01:37:23.511Z,0.00
2022-11-13T01:38:23.508Z,0.00
2022-11-13T01:39:23.497Z,0.00
2022-11-13T01:40:23.489Z,0.00
2022-11-13T01:41:24.002Z,0.00
2022-11-13T01:42:23.587Z,0.00
2022-11-13T01:43:23.512Z,0.00
2022-11-13T01:44:23.479Z,0.00
2022-11-13T01:45:23.462Z,0.00
2022-11-13T01:46:23.463Z,0.00
2022-11-13T01:47:23.434Z,0.00
2022-11-13T01:48:23.407Z,0.00
2022-11-13T01:49:23.407Z,0.00
2022-11-13T01:50:23.370Z,0.00
2022-11-13T01:51:23.361Z,0.00
2022-11-13T01:52:23.359Z,0.00
2022-11-13T01:53:23.341Z,0.00
2022-11-13T01:54:23.528Z,0.00
2022-11-13T01:55:23.318Z,0.00
2022-11-13T01:56:23.369Z,0.00
2022-11-13T01:57:23.299Z,0.00
2022-11-13T01:58:23.416Z,0.00
2022-11-13T01:59:23.280Z,0.00
2022-11-13T02:00:23.296Z,0.00
2022-11-13T02:01:23.396Z,0.00
2022-11-13T02:02:23.235Z,0.00
2022-11-13T02:03:23.237Z,0.00
2022-11-13T02:04:23.209Z,0.00
2022-11-13T02:05:23.217Z,0.00
2022-11-13T02:06:23.242Z,0.00
2022-11-13T02:07:23.346Z,0.00
2022-11-13T02:08:23.198Z,0.00
2022-11-13T02:09:23.198Z,0.00
2022-11-13T02:10:23.153Z,0.00
2022-11-13T02:11:23.135Z,0.00
2022-11-13T02:12:23.193Z,0.00
2022-11-13T02:13:23.129Z,0.00
2022-11-13T02:14:23.203Z,0.00
2022-11-13T02:15:23.093Z,0.00
2022-11-13T02:16:23.105Z,0.00
2022-11-13T02:17:23.519Z,0.00
2022-11-13T02:18:23.105Z,0.00
2022-11-13T02:19:23.112Z,0.00
2022-11-13T02:20:23.083Z,0.00
2022-11-13T02:21:23.077Z,0.00
2022-11-13T02:22:23.094Z,0.00
2022-11-13T02:23:23.018Z,0.00
2022-11-13T02:24:23.000Z,0.00
2022-11-13T02:25:22.993Z,0.00
2022-11-13T02:26:22.977Z,0.00
2022-11-13T02:27:23.046Z,0.00
2022-11-13T02:28:22.982Z,0.00
2022-11-13T02:29:22.943Z,0.00
2022-11-13T02:30:26.934Z,0.00
2022-11-13T02:31:22.926Z,0.00
2022-11-13T02:32:22.902Z,0.00
2022-11-13T02:33:22.914Z,0.00
2022-11-13T02:34:22.890Z,0.00
2022-11-13T02:35:22.870Z,0.00
2022-11-13T02:36:22.868Z,0.00
2022-11-13T02:37:22.863Z,0.00
2022-11-13T02:38:22.859Z,0.00
2022-11-13T02:39:22.835Z,0.00
2022-11-13T02:40:22.811Z,0.00
2022-11-13T02:41:22.818Z,0.00
2022-11-13T02:42:22.803Z,0.00
2022-11-13T02:43:22.795Z,0.00
2022-11-13T02:44:22.777Z,0.00
2022-11-13T02:45:22.764Z,0.00
2022-11-13T02:46:22.853Z,0.00
2022-11-13T02:47:22.807Z,0.00
2022-11-13T02:48:22.746Z,0.00
2022-11-13T02:49:22.727Z,0.00
2022-11-13T02:50:22.705Z,0.00
2022-11-13T02:51:22.690Z,0.00
2022-11-13T02:52:22.761Z,0.00
2022-11-13T02:53:22.679Z,0.00
2022-11-13T02:54:22.673Z,0.00
2022-11-13T02:55:22.647Z,0.00
2022-11-13T02:56:22.657Z,0.00
2022-11-13T02:57:22.624Z,0.00
2022-11-13T02:58:22.617Z,0.00
2022-11-13T02:59:22.612Z,0.00
2022-11-13T03:00:22.605Z,0.00
2022-11-13T03:01:22.644Z,0.00
2022-11-13T03:02:22.700Z,0.00
2022-11-13T03:03:48.163Z,0.00
2022-11-13T03:04:23.562Z,0.00
2022-11-13T03:05:22.559Z,0.00
2022-11-13T03:06:22.538Z,0.00
2022-11-13T03:07:22.583Z,0.00
2022-11-13T03:08:22.510Z,0.00
2022-11-13T03:09:22.509Z,0.00
2022-11-13T03:10:22.495Z,0.00
2022-11-13T03:11:22.494Z,0.00
2022-11-13T03:12:22.472Z,0.00
2022-11-13T03:13:22.468Z,0.00
2022-11-13T03:14:22.434Z,0.00
2022-11-13T03:15:22.427Z,0.00
2022-11-13T03:16:22.461Z,0.00
2022-11-13T03:17:22.425Z,0.00
2022-11-13T03:18:22.511Z,0.00
2022-11-13T03:19:22.406Z,0.00
2022-11-13T03:20:22.369Z,0.00
2022-11-13T03:21:22.363Z,0.00
2022-11-13T03:22:22.366Z,0.00
2022-11-13T03:23:22.340Z,0.00
2022-11-13T03:24:22.338Z,0.00
2022-11-13T03:25:22.331Z,0.00
2022-11-13T03:26:22.311Z,0.00
2022-11-13T03:27:22.313Z,0.00
2022-11-13T03:28:22.301Z,0.00
2022-11-13T03:29:22.298Z,0.00
2022-11-13T03:30:22.267Z,0.00
2022-11-13T03:31:22.264Z,0.00
2022-11-13T03:32:22.238Z,0.00
2022-11-13T03:33:22.250Z,0.00
2022-11-13T03:34:22.346Z,0.00
2022-11-13T03:35:22.227Z,0.00
2022-11-13T03:36:22.209Z,0.00
2022-11-13T03:37:22.285Z,0.00
2022-11-13T03:38:22.187Z,0.00
2022-11-13T03:39:22.175Z,0.00
2022-11-13T03:40:22.191Z,0.00
2022-11-13T03:41:22.142Z,0.00
2022-11-13T03:42:22.144Z,0.00
2022-11-13T03:43:22.146Z,0.00
2022-11-13T03:44:22.136Z,0.00
2022-11-13T03:45:22.108Z,0.00
2022-11-13T03:46:22.123Z,0.00
2022-11-13T03:47:22.072Z,0.00
2022-11-13T03:48:22.071Z,0.00
2022-11-13T03:49:22.066Z,0.00
2022-11-13T03:50:22.169Z,0.00
2022-11-13T03:51:22.049Z,0.00
2022-11-13T03:52:22.024Z,0.00
2022-11-13T03:53:22.022Z,0.00
2022-11-13T03:54:21.997Z,0.00
2022-11-13T03:55:21.998Z,0.00
2022-11-13T03:56:21.976Z,0.00
2022-11-13T03:57:21.972Z,0.00
2022-11-13T03:58:21.956Z,0.00
2022-11-13T03:59:21.952Z,0.00
2022-11-13T04:00:22.003Z,0.00
2022-11-13T04:01:21.980Z,0.00
2022-11-13T04:02:21.931Z,0.00
2022-11-13T04:03:21.910Z,0.00
2022-11-13T04:04:21.887Z,0.00
2022-11-13T04:05:23.058Z,0.00
2022-11-13T04:06:22.001Z,0.00
2022-11-13T04:07:21.911Z,0.00
2022-11-13T04:08:21.850Z,0.00
2022-11-13T04:09:21.839Z,0.00
2022-11-13T04:10:21.827Z,0.00
2022-11-13T04:11:21.831Z,0.00
2022-11-13T04:12:21.799Z,0.00
2022-11-13T04:13:21.800Z,0.00
2022-11-13T04:14:21.821Z,0.00
2022-11-13T04:15:21.756Z,0.00
2022-11-13T04:16:21.795Z,0.00
2022-11-13T04:17:21.740Z,0.00
2022-11-13T04:18:21.725Z,0.00
2022-11-13T04:19:21.918Z,0.00
2022-11-13T04:20:21.701Z,0.00
2022-11-13T04:21:21.695Z,0.00
2022-11-13T04:22:21.799Z,0.00
2022-11-13T04:23:21.668Z,0.00
2022-11-13T04:24:21.707Z,0.00
2022-11-13T04:25:21.646Z,0.00
2022-11-13T04:26:21.643Z,0.00
2022-11-13T04:27:21.634Z,0.00
2022-11-13T04:28:21.618Z,0.00
2022-11-13T04:29:21.620Z,0.00
2022-11-13T04:30:21.598Z,0.00
2022-11-13T04:31:21.581Z,0.00
2022-11-13T04:32:21.573Z,0.00
2022-11-13T04:33:21.644Z,0.00
2022-11-13T04:34:21.572Z,0.00
2022-11-13T04:35:21.546Z,0.00
2022-11-13T04:36:21.568Z,0.00
2022-11-13T04:37:21.532Z,0.00
2022-11-13T04:38:21.640Z,0.00
2022-11-13T04:39:21.563Z,0.00
2022-11-13T04:40:21.484Z,0.00
2022-11-13T04:41:21.496Z,0.00
2022-11-13T04:42:21.490Z,0.00
2022-11-13T04:43:21.471Z,0.00
2022-11-13T04:44:21.455Z,0.00
2022-11-13T04:45:21.445Z,0.00
2022-11-13T04:46:21.442Z,0.00
2022-11-13T04:47:21.425Z,0.00
2022-11-13T04:48:21.400Z,0.00
2022-11-13T04:49:21.392Z,0.00
2022-11-13T04:50:21.411Z,0.00
2022-11-13T04:51:21.375Z,0.00
2022-11-13T04:52:21.374Z,0.00
2022-11-13T04:53:21.371Z,0.00
2022-11-13T04:54:27.352Z,0.00
2022-11-13T04:55:22.332Z,0.00
2022-11-13T04:56:21.343Z,0.00
2022-11-13T04:57:21.304Z,0.00
2022-11-13T04:58:21.283Z,0.00
2022-11-13T04:59:21.276Z,0.00
2022-11-13T05:00:21.272Z,0.00
2022-11-13T05:01:21.282Z,0.00
2022-11-13T05:02:21.263Z,0.00
2022-11-13T05:03:21.224Z,0.00
2022-11-13T05:04:21.246Z,0.00
2022-11-13T05:05:21.213Z,0.00
2022-11-13T05:06:21.199Z,0.00
2022-11-13T05:07:21.290Z,0.00
2022-11-13T05:08:21.173Z,0.00
2022-11-13T05:09:21.160Z,0.00
2022-11-13T05:10:21.278Z,0.00
2022-11-13T05:11:21.144Z,0.00
2022-11-13T05:12:21.132Z,0.00
2022-11-13T05:13:21.114Z,0.00
2022-11-13T05:14:21.213Z,0.00
2022-11-13T05:15:30.037Z,0.00
2022-11-13T05:16:21.106Z,0.00
2022-11-13T05:17:21.079Z,0.00
2022-11-13T05:18:21.068Z,0.00
2022-11-13T05:19:21.060Z,0.00
2022-11-13T05:20:21.045Z,0.00
2022-11-13T05:21:21.062Z,0.00
2022-11-13T05:22:21.022Z,0.00
2022-11-13T05:23:21.017Z,0.00
2022-11-13T05:24:21.000Z,0.00
2022-11-13T05:25:20.992Z,0.00
2022-11-13T05:26:21.107Z,0.00
2022-11-13T05:27:20.969Z,0.00
2022-11-13T05:28:20.970Z,0.00
2022-11-13T05:29:20.941Z,0.00
2022-11-13T05:30:20.931Z,0.00
2022-11-13T05:31:20.929Z,0.00
2022-11-13T05:32:20.939Z,0.00
2022-11-13T05:33:20.906Z,0.00
2022-11-13T05:34:20.893Z,0.00
2022-11-13T05:35:20.880Z,0.00
2022-11-13T05:36:20.872Z,0.00
2022-11-13T05:37:20.900Z,0.00
2022-11-13T05:38:20.860Z,0.00
2022-11-13T05:39:20.853Z,0.00
2022-11-13T05:40:20.848Z,0.00
2022-11-13T05:41:20.811Z,0.00
2022-11-13T05:42:20.939Z,0.00
2022-11-13T05:43:20.816Z,0.00
2022-11-13T05:44:20.789Z,0.00
2022-11-13T05:45:20.770Z,0.00
2022-11-13T05:46:20.764Z,0.00
2022-11-13T05:47:20.747Z,0.00
2022-11-13T05:48:20.746Z,0.00
2022-11-13T05:49:20.725Z,0.00
2022-11-13T05:50:20.730Z,0.00
2022-11-13T05:51:20.701Z,0.00
2022-11-13T05:52:20.689Z,0.00
2022-11-13T05:53:20.704Z,0.00
2022-11-13T05:54:20.667Z,0.00
2022-11-13T05:55:23.367Z,0.00
2022-11-13T05:56:20.658Z,0.00
2022-11-13T05:57:20.649Z,0.00
2022-11-13T05:58:20.766Z,0.00
2022-11-13T05:59:20.635Z,4.00
2022-11-13T06:00:20.614Z,4.00
2022-11-13T06:01:20.592Z,0.00
2022-11-13T06:02:20.657Z,0.00
2022-11-13T06:03:20.570Z,4.00
2022-11-13T06:04:20.570Z,4.00
2022-11-13T06:05:20.560Z,4.00
2022-11-13T06:06:20.540Z,0.00
2022-11-13T06:07:20.593Z,4.00
2022-11-13T06:08:20.523Z,4.00
2022-11-13T06:09:20.519Z,4.00
2022-11-13T06:10:20.502Z,4.00
2022-11-13T06:11:20.481Z,8.00
2022-11-13T06:12:20.480Z,4.00
2022-11-13T06:13:20.480Z,8.00
2022-11-13T06:14:20.468Z,8.00
2022-11-13T06:15:20.442Z,12.00
2022-11-13T06:16:20.429Z,12.00
2022-11-13T06:17:20.421Z,12.00
2022-11-13T06:18:25.338Z,16.00
2022-11-13T06:19:21.407Z,12.00
2022-11-13T06:20:20.392Z,16.00
2022-11-13T06:21:20.382Z,20.00
2022-11-13T06:22:20.360Z,20.00
2022-11-13T06:23:20.348Z,20.00
2022-11-13T06:24:20.353Z,20.00
2022-11-13T06:25:20.331Z,20.00
2022-11-13T06:26:20.327Z,24.00
2022-11-13T06:27:20.310Z,24.00
2022-11-13T06:28:20.297Z,24.00
2022-11-13T06:29:20.311Z,32.00
2022-11-13T06:30:20.386Z,32.00
2022-11-13T06:31:20.276Z,32.00
2022-11-13T06:32:20.257Z,32.00
2022-11-13T06:33:20.250Z,36.00
2022-11-13T06:34:20.248Z,40.00
2022-11-13T06:35:20.217Z,44.00
2022-11-13T06:36:20.214Z,44.00
2022-11-13T06:37:20.206Z,48.00
2022-11-13T06:38:20.188Z,48.00
2022-11-13T06:39:20.245Z,52.00
2022-11-13T06:40:20.180Z,52.00
2022-11-13T06:41:20.152Z,52.00
2022-11-13T06:42:20.168Z,60.00
2022-11-13T06:43:20.139Z,60.00
2022-11-13T06:44:20.131Z,60.00
2022-11-13T06:45:20.108Z,60.00
2022-11-13T06:46:20.207Z,64.00
2022-11-13T06:47:20.089Z,68.00
2022-11-13T06:48:20.088Z,68.00
2022-11-13T06:49:20.072Z,76.00
2022-11-13T06:50:20.057Z,76.00
2022-11-13T06:51:20.056Z,84.00
2022-11-13T06:52:20.050Z,88.00
2022-11-13T06:53:20.023Z,92.00
2022-11-13T06:54:20.008Z,100.00
2022-11-13T06:55:19.996Z,116.00
2022-11-13T06:56:19.995Z,120.00
2022-11-13T06:57:19.993Z,120.00
2022-11-13T06:58:19.969Z,124.00
2022-11-13T06:59:19.953Z,128.00
2022-11-13T07:00:19.963Z,136.00
2022-11-13T07:01:20.099Z,144.00
2022-11-13T07:02:20.042Z,136.00
2022-11-13T07:03:19.915Z,136.00
2022-11-13T07:04:19.919Z,124.00
2022-11-13T07:05:19.894Z,124.00
2022-11-13T07:06:19.876Z,116.00
2022-11-13T07:07:19.935Z,116.00
2022-11-13T07:08:19.864Z,120.00
2022-11-13T07:09:19.845Z,128.00
2022-11-13T07:10:19.858Z,132.00
2022-11-13T07:11:19.826Z,132.00
2022-11-13T07:12:19.816Z,140.00
2022-11-13T07:13:19.800Z,140.00
2022-11-13T07:14:19.794Z,144.00
2022-11-13T07:15:19.800Z,156.00
2022-11-13T07:16:19.779Z,160.00
2022-11-13T07:17:19.761Z,164.00
2022-11-13T07:18:23.820Z,168.00
2022-11-13T07:19:19.746Z,176.00
2022-11-13T07:20:19.733Z,176.00
2022-11-13T07:21:19.724Z,184.00
2022-11-13T07:22:19.699Z,200.00
2022-11-13T07:23:19.708Z,208.00
2022-11-13T07:24:19.689Z,208.00
2022-11-13T07:25:19.671Z,224.00
2022-11-13T07:26:19.702Z,232.00
2022-11-13T07:27:19.650Z,244.00
2022-11-13T07:28:19.650Z,264.00
2022-11-13T07:29:19.636Z,276.00
2022-11-13T07:30:19.624Z,288.00
2022-11-13T07:31:19.620Z,280.00
2022-11-13T07:32:19.608Z,292.00
2022-11-13T07:33:19.588Z,292.00
2022-11-13T07:34:19.679Z,292.00
2022-11-13T07:35:19.575Z,288.00
2022-11-13T07:36:19.550Z,304.00
2022-11-13T07:37:19.538Z,304.00
2022-11-13T07:38:19.527Z,304.00
2022-11-13T07:39:19.513Z,304.00
2022-11-13T07:40:19.529Z,304.00
2022-11-13T07:41:19.503Z,320.00
2022-11-13T07:42:19.489Z,328.00
2022-11-13T07:43:19.478Z,344.00
2022-11-13T07:44:40.152Z,364.00
2022-11-13T07:45:20.462Z,360.00
2022-11-13T07:46:19.444Z,344.00
2022-11-13T07:47:19.424Z,336.00
2022-11-13T07:48:19.423Z,332.00
2022-11-13T07:49:19.431Z,348.00
2022-11-13T07:50:19.506Z,348.00
2022-11-13T07:51:19.394Z,344.00
2022-11-13T07:52:19.380Z,356.00
2022-11-13T07:53:19.361Z,356.00
2022-11-13T07:54:19.359Z,352.00
2022-11-13T07:55:19.361Z,356.00
2022-11-13T07:56:22.976Z,352.00
2022-11-13T07:57:19.317Z,384.00
2022-11-13T07:58:19.304Z,372.00
2022-11-13T07:59:19.304Z,380.00
2022-11-13T08:00:19.303Z,388.00
2022-11-13T08:01:19.351Z,388.00
2022-11-13T08:02:22.323Z,396.00
2022-11-13T08:03:20.284Z,396.00
2022-11-13T08:04:19.247Z,392.00
2022-11-13T08:05:19.231Z,400.00
2022-11-13T08:06:19.327Z,416.00
2022-11-13T08:07:19.284Z,440.00
2022-11-13T08:08:19.204Z,476.00
2022-11-13T08:09:19.205Z,536.00
2022-11-13T08:10:19.182Z,548.00
2022-11-13T08:11:19.192Z,548.00
2022-11-13T08:12:19.162Z,584.00
2022-11-13T08:13:19.143Z,572.00
2022-11-13T08:14:19.132Z,628.00
2022-11-13T08:15:19.126Z,680.00
2022-11-13T08:16:19.136Z,680.00
2022-11-13T08:17:19.105Z,640.00
2022-11-13T08:18:19.094Z,716.00
2022-11-13T08:19:19.083Z,652.00
2022-11-13T08:20:19.064Z,696.00
2022-11-13T08:21:19.075Z,652.00
2022-11-13T08:22:19.164Z,652.00
2022-11-13T08:23:19.043Z,664.00
2022-11-13T08:24:19.028Z,684.00
2022-11-13T08:25:19.010Z,676.00
2022-11-13T08:26:19.013Z,648.00
2022-11-13T08:27:19.015Z,656.00
2022-11-13T08:28:18.979Z,644.00
2022-11-13T08:29:18.970Z,648.00
2022-11-13T08:30:18.953Z,652.00
2022-11-13T08:31:18.951Z,640.00
2022-11-13T08:32:18.965Z,652.00
2022-11-13T08:33:18.922Z,668.00
2022-11-13T08:34:18.911Z,692.00
2022-11-13T08:35:19.899Z,696.00
2022-11-13T08:36:18.905Z,720.00
2022-11-13T08:37:18.889Z,732.00
2022-11-13T08:38:18.996Z,716.00
2022-11-13T08:39:18.868Z,712.00
2022-11-13T08:40:18.848Z,712.00
2022-11-13T08:41:18.837Z,756.00
2022-11-13T08:42:18.827Z,868.00
2022-11-13T08:43:18.826Z,844.00
2022-11-13T08:44:18.804Z,908.00
2022-11-13T08:45:18.798Z,892.00
2022-11-13T08:46:18.791Z,896.00
2022-11-13T08:47:18.789Z,896.00
2022-11-13T08:48:18.781Z,888.00
2022-11-13T08:49:18.762Z,876.00
2022-11-13T08:50:18.742Z,856.00
2022-11-13T08:51:18.728Z,816.00
2022-11-13T08:52:18.721Z,828.00
2022-11-13T08:53:18.721Z,856.00
2022-11-13T08:54:18.839Z,924.00
2022-11-13T08:55:18.689Z,904.00
2022-11-13T08:56:18.680Z,908.00
2022-11-13T08:57:18.672Z,904.00
2022-11-13T08:58:18.650Z,900.00
2022-11-13T08:59:18.669Z,872.00
2022-11-13T09:00:18.669Z,876.00
2022-11-13T09:01:18.618Z,876.00
2022-11-13T09:02:18.621Z,924.00
2022-11-13T09:03:18.718Z,932.00
2022-11-13T09:04:18.597Z,932.00
2022-11-13T09:05:18.583Z,924.00
2022-11-13T09:06:18.586Z,940.00
2022-11-13T09:07:21.048Z,972.00
2022-11-13T09:08:19.544Z,984.00
2022-11-13T09:09:18.533Z,932.00
2022-11-13T09:10:18.653Z,976.00
2022-11-13T09:11:18.514Z,980.00
2022-11-13T09:12:18.512Z,1016.00
2022-11-13T09:13:18.493Z,988.00
2022-11-13T09:14:18.488Z,964.00
2022-11-13T09:15:23.285Z,1020.00
2022-11-13T09:16:19.477Z,1040.00
2022-11-13T09:17:18.470Z,1004.00
2022-11-13T09:18:18.438Z,1048.00
2022-11-13T09:19:18.427Z,992.00
2022-11-13T09:20:22.672Z,976.00
2022-11-13T09:21:18.404Z,1012.00
2022-11-13T09:22:18.420Z,1040.00
2022-11-13T09:23:18.400Z,1028.00
2022-11-13T09:24:18.368Z,1020.00
2022-11-13T09:25:18.356Z,1000.00
2022-11-13T09:26:18.467Z,988.00
2022-11-13T09:27:18.345Z,1000.00
2022-11-13T09:28:18.333Z,992.00
2022-11-13T09:29:18.316Z,1012.00
2022-11-13T09:30:18.304Z,1012.00
2022-11-13T09:31:18.310Z,1052.00
2022-11-13T09:32:18.291Z,1024.00
2022-11-13T09:33:18.290Z,1040.00
2022-11-13T09:34:18.272Z,1068.00
2022-11-13T09:35:18.255Z,1072.00
2022-11-13T09:36:18.245Z,1040.00
2022-11-13T09:37:18.226Z,1048.00
2022-11-13T09:38:18.226Z,1036.00
2022-11-13T09:39:18.230Z,1052.00
2022-11-13T09:40:18.203Z,1084.00
2022-11-13T09:41:18.184Z,1092.00
2022-11-13T09:42:18.279Z,1092.00
2022-11-13T09:43:18.171Z,1092.00
2022-11-13T09:44:18.152Z,1088.00
2022-11-13T09:45:18.153Z,1092.00
2022-11-13T09:46:18.132Z,1088.00
2022-11-13T09:47:18.133Z,1096.00
2022-11-13T09:48:18.115Z,1128.00
2022-11-13T09:49:18.106Z,1132.00
2022-11-13T09:50:18.095Z,1168.00
2022-11-13T09:51:18.077Z,1248.00
2022-11-13T09:52:18.082Z,1372.00
2022-11-13T09:53:18.061Z,1456.00
2022-11-13T09:54:18.048Z,1356.00
2022-11-13T09:55:18.035Z,1424.00
2022-11-13T09:56:18.027Z,1372.00
2022-11-13T09:57:23.064Z,1424.00
2022-11-13T09:58:18.123Z,1428.00
2022-11-13T09:59:18.024Z,1544.00
2022-11-13T10:00:17.983Z,1540.00
2022-11-13T10:01:18.019Z,1444.00
2022-11-13T10:02:17.956Z,1504.00
2022-11-13T10:03:39.153Z,1516.00
2022-11-13T10:04:18.966Z,1588.00
2022-11-13T10:05:17.930Z,1564.00
2022-11-13T10:06:17.918Z,1692.00
2022-11-13T10:07:17.948Z,1676.00
2022-11-13T10:08:17.893Z,1584.00
2022-11-13T10:09:17.876Z,1600.00
2022-11-13T10:10:17.887Z,1652.00
2022-11-13T10:11:17.854Z,1612.00
2022-11-13T10:12:17.847Z,1628.00
2022-11-13T10:13:17.850Z,1616.00
2022-11-13T10:14:17.925Z,1552.00
2022-11-13T10:15:17.821Z,1580.00
2022-11-13T10:16:17.822Z,1640.00
2022-11-13T10:17:17.786Z,1596.00
2022-11-13T10:18:17.774Z,1644.00
2022-11-13T10:19:17.774Z,1640.00
2022-11-13T10:20:17.771Z,1596.00
2022-11-13T10:21:17.748Z,1548.00
2022-11-13T10:22:34.440Z,1580.00
2022-11-13T10:23:18.724Z,1648.00
2022-11-13T10:24:17.716Z,1756.00
2022-11-13T10:25:17.709Z,1920.00
2022-11-13T10:26:17.704Z,1708.00
2022-11-13T10:27:17.776Z,1608.00
2022-11-13T10:28:48.281Z,1724.00
2022-11-13T10:29:18.688Z,1800.00
2022-11-13T10:30:17.799Z,1900.00
2022-11-13T10:31:17.687Z,1904.00
2022-11-13T10:32:17.649Z,1884.00
2022-11-13T10:33:17.636Z,1968.00
2022-11-13T10:34:17.632Z,2092.00
2022-11-13T10:35:17.589Z,2500.00
2022-11-13T10:36:17.583Z,2356.00
2022-11-13T10:37:17.614Z,2340.00
2022-11-13T10:38:17.619Z,2364.00
2022-11-13T10:39:17.547Z,2424.00
2022-11-13T10:40:17.583Z,2248.00
2022-11-13T10:41:17.556Z,2256.00
2022-11-13T10:42:17.547Z,2320.00
2022-11-13T10:43:17.512Z,2320.00
2022-11-13T10:44:17.522Z,2248.00
2022-11-13T10:45:17.509Z,2432.00
2022-11-13T10:46:17.620Z,2192.00
2022-11-13T10:47:26.539Z,2208.00
2022-11-13T10:48:18.479Z,2292.00
2022-11-13T10:49:17.475Z,2252.00
2022-11-13T10:50:17.490Z,2224.00
2022-11-13T10:51:17.455Z,2240.00
2022-11-13T10:52:17.406Z,2108.00
2022-11-13T10:53:17.397Z,2216.00
2022-11-13T10:54:17.403Z,2012.00
2022-11-13T10:55:17.437Z,1908.00
2022-11-13T10:56:17.381Z,2124.00
2022-11-13T10:57:17.377Z,2088.00
2022-11-13T10:58:17.363Z,2252.00
2022-11-13T10:59:17.346Z,2736.00
2022-11-13T11:00:17.690Z,2788.00
2022-11-13T11:01:17.392Z,3060.00
2022-11-13T11:02:17.411Z,3064.00
2022-11-13T11:03:17.304Z,2604.00
2022-11-13T11:04:17.298Z,2668.00
2022-11-13T11:05:17.266Z,2560.00
2022-11-13T11:06:17.332Z,2448.00
2022-11-13T11:07:20.134Z,2492.00
2022-11-13T11:08:17.237Z,2516.00
2022-11-13T11:09:17.230Z,2520.00
2022-11-13T11:10:17.256Z,2628.00
2022-11-13T11:11:17.245Z,2684.00
2022-11-13T11:12:17.246Z,2488.00
2022-11-13T11:13:17.241Z,2648.00
2022-11-13T11:14:17.167Z,2608.00
2022-11-13T11:15:17.204Z,2924.00
2022-11-13T11:16:26.646Z,2640.00
2022-11-13T11:17:17.151Z,2364.00
2022-11-13T11:18:17.231Z,2356.00
2022-11-13T11:19:17.136Z,2468.00
2022-11-13T11:20:17.123Z,2548.00
2022-11-13T11:21:17.090Z,3016.00
2022-11-13T11:22:17.090Z,3896.00
2022-11-13T11:23:17.072Z,3044.00
2022-11-13T11:24:17.051Z,3392.00
2022-11-13T11:25:17.039Z,4312.00
2022-11-13T11:26:17.035Z,4648.00
2022-11-13T11:27:17.046Z,4756.00
2022-11-13T11:28:17.042Z,4548.00
2022-11-13T11:29:17.007Z,4760.00
2022-11-13T11:30:17.120Z,4996.00
2022-11-13T11:31:16.981Z,4976.00
2022-11-13T11:32:16.967Z,4988.00
2022-11-13T11:33:16.968Z,4980.00
2022-11-13T11:34:17.092Z,5420.00
2022-11-13T11:35:16.951Z,5136.00
2022-11-13T11:36:16.923Z,5452.00
2022-11-13T11:37:16.920Z,4916.00
2022-11-13T11:38:16.900Z,5144.00
2022-11-13T11:39:16.905Z,6456.00
2022-11-13T11:40:16.897Z,5628.00
2022-11-13T11:41:17.169Z,4748.00
2022-11-13T11:42:16.862Z,5812.00
2022-11-13T11:43:16.844Z,5952.00
2022-11-13T11:44:16.845Z,4968.00
2022-11-13T11:45:16.857Z,5072.00
2022-11-13T11:46:16.815Z,5176.00
2022-11-13T11:47:16.857Z,4876.00
2022-11-13T11:48:16.830Z,5068.00
2022-11-13T11:49:16.811Z,4176.00
2022-11-13T11:50:16.897Z,4700.00
2022-11-13T11:51:16.790Z,4088.00
2022-11-13T11:52:16.765Z,4652.00
2022-11-13T11:53:16.744Z,4396.00
2022-11-13T11:54:16.747Z,4232.00
2022-11-13T11:55:16.749Z,3892.00
2022-11-13T11:56:16.710Z,4200.00
2022-11-13T11:57:16.707Z,3816.00
2022-11-13T11:58:16.715Z,3080.00
2022-11-13T11:59:16.674Z,3336.00
2022-11-13T12:00:16.689Z,3540.00
2022-11-13T12:01:16.656Z,3404.00
2022-11-13T12:02:16.682Z,3688.00
2022-11-13T12:03:16.641Z,4024.00
2022-11-13T12:04:16.626Z,2680.00
2022-11-13T12:05:19.907Z,3504.00
2022-11-13T12:06:16.715Z,3644.00
2022-11-13T12:07:16.587Z,3740.00
2022-11-13T12:08:16.610Z,3572.00
2022-11-13T12:09:16.611Z,3172.00
2022-11-13T12:10:16.580Z,3520.00
2022-11-13T12:11:16.545Z,3256.00
2022-11-13T12:12:16.548Z,3660.00
2022-11-13T12:13:16.535Z,3600.00
2022-11-13T12:14:16.543Z,3456.00
2022-11-13T12:15:16.515Z,3220.00
2022-11-13T12:16:19.806Z,3180.00
2022-11-13T12:17:17.565Z,3128.00
2022-11-13T12:18:16.470Z,3096.00
2022-11-13T12:19:16.491Z,3148.00
2022-11-13T12:20:16.449Z,3132.00
2022-11-13T12:21:16.435Z,3076.00
2022-11-13T12:22:16.539Z,3112.00
2022-11-13T12:23:16.421Z,3088.00
2022-11-13T12:24:16.414Z,3016.00
2022-11-13T12:25:16.726Z,3104.00
2022-11-13T12:26:16.392Z,3020.00
2022-11-13T12:27:16.373Z,3112.00
2022-11-13T12:28:16.371Z,3008.00
2022-11-13T12:29:16.349Z,3056.00
2022-11-13T12:30:16.402Z,3032.00
2022-11-13T12:31:16.366Z,3032.00
2022-11-13T12:32:16.327Z,3036.00
2022-11-13T12:33:16.309Z,2984.00
2022-11-13T12:34:16.310Z,2984.00
2022-11-13T12:35:16.288Z,2928.00
2022-11-13T12:36:16.294Z,2908.00
2022-11-13T12:37:16.285Z,2936.00
2022-11-13T12:38:16.356Z,2908.00
2022-11-13T12:39:16.247Z,2900.00
2022-11-13T12:40:16.229Z,2860.00
2022-11-13T12:41:16.317Z,2848.00
2022-11-13T12:42:16.276Z,2824.00
2022-11-13T12:43:16.212Z,2856.00
2022-11-13T12:44:16.198Z,2844.00
2022-11-13T12:45:16.179Z,2768.00
2022-11-13T12:46:16.159Z,2772.00